Juan De La Cosa — ECJE — position and weather

sailwx.info

Track history (hours):
 
Tides and Currents Weather Stations Pressure Air Temp Water Temp Dewpoint Dewpoint Depression Visibility Wind Speed Wind Dir Waves Ship Positions

Juan De La Cosa

Last reported at 2015-May-30 10:28 UTC. Time now 2015-May-30 12:35 UTC.
Position N 43°35' W 005°09'.

Length 75 m; draft 4.5 m.

Type: Medical transport. MMSI: 224612000.

Date/timePositionNaut miles runAvg speedWind from/ knotsBaromVisibWave heightAir tempDewpointWater temp
2015-May-30 10:28N 43°35' W 005°09'12 5.8
2015-May-30 08:25N 43°39' W 005°24'5 6.0
2015-May-30 07:33N 43°40' W 005°31'6 6.1
2015-May-30 06:33N 43°42' W 005°39'6 5.9
2015-May-30 05:33N 43°43' W 005°48'6 5.6
2015-May-30 04:33N 43°43' W 005°55'1 0.8
2015-May-30 03:33N 43°43' W 005°54'6 6.0
2015-May-30 02:33N 43°43' W 005°46'6 6.1
2015-May-30 01:33N 43°42' W 005°38'6 5.8
2015-May-30 00:33N 43°40' W 005°30'30 1.5
2015-May-29 04:07N 43°42' W 004°48'4 7.2
2015-May-29 03:33N 43°43' W 004°54'16 7.2
2015-May-29 01:18N 43°46' W 005°16'5 7.1
2015-May-29 00:32N 43°46' W 005°23'9 7.0
2015-May-28 23:20N 43°44' W 005°34'6 7.1
2015-May-28 22:32N 43°45' W 005°42'8 7.4
2015-May-28 21:25N 43°46' W 005°53'6 6.5
2015-May-28 20:33N 43°48' W 006°01'2 1.2
2015-May-28 18:33N 43°50' W 005°58'5 4.0
2015-May-28 17:22N 43°54' W 006°00'5 4.9
2015-May-28 16:24N 43°49' W 006°01'1 1.1
2015-May-28 15:24N 43°49' W 006°02'7 6.6
2015-May-28 14:17N 43°48' W 005°52'4 6.0
2015-May-28 13:33N 43°50' W 005°47'6 5.1
2015-May-28 12:25N 43°50' W 005°38'6 6.4
2015-May-28 11:33N 43°46' W 005°33'5 5.0
2015-May-28 10:33N 43°49' W 005°38'6 5.8
2015-May-28 09:33N 43°53' W 005°44'3 2.8
2015-May-28 08:30N 43°54' W 005°48'6 6.1
2015-May-28 07:33N 43°55' W 005°40'6 6.3
2015-May-28 06:33N 43°58' W 005°33'5 4.6
2015-May-28 05:26N 43°57' W 005°40'6 6.0
2015-May-28 04:29N 44°02' W 005°40'7 5.7
2015-May-28 03:12N 44°05' W 005°30'5 6.3
2015-May-28 02:21N 44°05' W 005°23'5 6.1
2015-May-28 01:33N 44°03' W 005°17'5 4.4
2015-May-28 00:31N 43°59' W 005°15'6 5.5
2015-May-27 23:25N 43°55' W 005°22'6 5.8
2015-May-27 22:25N 43°50' W 005°27'10 5.1
2015-May-27 20:25N 43°40' W 005°26'2 2.3
2015-May-27 19:33N 43°39' W 005°24'5 4.9
2015-May-27 18:33N 43°41' W 005°30'5 4.5
2015-May-27 17:33N 43°38' W 005°25'4 4.2
2015-May-27 16:33N 43°40' W 005°21'6 6.2
2015-May-27 15:33N 43°39' W 005°12'7 6.6
2015-May-27 14:33N 43°38' W 005°03'6 5.9
2015-May-27 13:31N 43°36' W 004°56'4 3.3
2015-May-27 12:11N 43°40' W 004°55'3 5.6
2015-May-27 11:33N 43°43' W 004°56'22 5.4
2015-May-27 07:33N 43°47' W 005°25'6 6.0
2015-May-27 06:33N 43°44' W 005°32'5 5.4
2015-May-27 05:33N 43°45' W 005°25'0 0.3
2015-May-27 04:33N 43°45' W 005°25'6 5.9
2015-May-27 03:31N 43°43' W 005°17'3 1.5
2015-May-27 01:30N 43°44' W 005°21'5 5.5
2015-May-27 00:32N 43°45' W 005°28'6 5.5
2015-May-26 23:33N 43°48' W 005°34'2 2.4
2015-May-26 22:33N 43°50' W 005°37'4 3.8
2015-May-26 21:31N 43°53' W 005°34'13 3.2
2015-May-26 17:33N 43°45' W 005°20'5 5.1
2015-May-26 16:33N 43°49' W 005°25'1 1.1
2015-May-26 15:26N 43°49' W 005°26'5 5.8
2015-May-26 14:33N 43°45' W 005°21'3 3.4
2015-May-26 13:33N 43°43' W 005°25'6 5.6
2015-May-26 12:33N 43°39' W 005°29'4 3.5
2015-May-26 11:33N 43°36' W 005°26'1 0.7
2015-May-26 10:32N 43°37' W 005°26'2 2.0
2015-May-26 09:33N 43°38' W 005°28'2 1.5
2015-May-26 08:15N 43°37' W 005°26'4 5.9
2015-May-26 07:33N 43°38' W 005°31'5 5.0
2015-May-26 06:33N 43°42' W 005°34'3 3.2
2015-May-26 05:33N 43°44' W 005°30'5 4.7
2015-May-26 04:33N 43°42' W 005°24'6 5.5
2015-May-26 03:32N 43°42' W 005°17'6 5.6
2015-May-26 02:33N 43°42' W 005°09'6 6.0
2015-May-26 01:33N 43°40' W 005°01'8 6.5
2015-May-26 00:21N 43°39' W 004°50'6 7.0
2015-May-25 23:28N 43°37' W 004°42'7 0.3
2015-May-25 02:23N 43°42' W 004°50'5 5.9
2015-May-25 01:30N 43°42' W 004°57'  
2015-May-22 06:24N 43°49' W 004°44'6 5.9
2015-May-22 05:23N 43°48' W 004°36'3 1.9
2015-May-22 03:32N 43°45' W 004°39'8 1.6
2015-May-21 22:28N 43°37' W 004°42'12 1.5
2015-May-21 14:33N 43°44' W 004°55'13 4.1
2015-May-21 11:26N 43°52' W 005°09'3 3.1
2015-May-21 10:33N 43°53' W 005°12'8 7.7
2015-May-21 09:28N 43°50' W 005°02'6 6.4
2015-May-21 08:33N 43°48' W 004°54'16 5.1
2015-May-21 05:24N 43°49' W 005°17'6 6.6
2015-May-21 04:33N 43°49' W 005°09'8 7.8
2015-May-21 03:31N 43°49' W 004°58'8 7.9
2015-May-21 02:33N 43°49' W 004°47'9 7.8
2015-May-21 01:28N 43°48' W 004°36'  
Track history (hours):
 
Tides and Currents Weather Stations Pressure Air Temp Water Temp Dewpoint Dewpoint Depression Visibility Wind Speed Wind Dir Waves Ship Positions

Juan De La Cosa

Last reported at 2015-May-30 10:28 UTC. Time now 2015-May-30 12:35 UTC.
Position N 43°35' W 005°09'.

Length 75 m; draft 4.5 m.

Type: Medical transport. MMSI: 224612000.

Date/timePositionNaut miles runAvg speedWind from/ knotsBaromVisibWave heightAir tempDewpointWater temp
2015-May-30 10:28N 43°35' W 005°09'12 5.8
2015-May-30 08:25N 43°39' W 005°24'5 6.0
2015-May-30 07:33N 43°40' W 005°31'6 6.1
2015-May-30 06:33N 43°42' W 005°39'6 5.9
2015-May-30 05:33N 43°43' W 005°48'6 5.6
2015-May-30 04:33N 43°43' W 005°55'1 0.8
2015-May-30 03:33N 43°43' W 005°54'6 6.0
2015-May-30 02:33N 43°43' W 005°46'6 6.1
2015-May-30 01:33N 43°42' W 005°38'6 5.8
2015-May-30 00:33N 43°40' W 005°30'30 1.5
2015-May-29 04:07N 43°42' W 004°48'4 7.2
2015-May-29 03:33N 43°43' W 004°54'16 7.2
2015-May-29 01:18N 43°46' W 005°16'5 7.1
2015-May-29 00:32N 43°46' W 005°23'9 7.0
2015-May-28 23:20N 43°44' W 005°34'6 7.1
2015-May-28 22:32N 43°45' W 005°42'8 7.4
2015-May-28 21:25N 43°46' W 005°53'6 6.5
2015-May-28 20:33N 43°48' W 006°01'2 1.2
2015-May-28 18:33N 43°50' W 005°58'5 4.0
2015-May-28 17:22N 43°54' W 006°00'5 4.9
2015-May-28 16:24N 43°49' W 006°01'1 1.1
2015-May-28 15:24N 43°49' W 006°02'7 6.6
2015-May-28 14:17N 43°48' W 005°52'4 6.0
2015-May-28 13:33N 43°50' W 005°47'6 5.1
2015-May-28 12:25N 43°50' W 005°38'6 6.4
2015-May-28 11:33N 43°46' W 005°33'5 5.0
2015-May-28 10:33N 43°49' W 005°38'6 5.8
2015-May-28 09:33N 43°53' W 005°44'3 2.8
2015-May-28 08:30N 43°54' W 005°48'6 6.1
2015-May-28 07:33N 43°55' W 005°40'6 6.3
2015-May-28 06:33N 43°58' W 005°33'5 4.6
2015-May-28 05:26N 43°57' W 005°40'6 6.0
2015-May-28 04:29N 44°02' W 005°40'7 5.7
2015-May-28 03:12N 44°05' W 005°30'5 6.3
2015-May-28 02:21N 44°05' W 005°23'5 6.1
2015-May-28 01:33N 44°03' W 005°17'5 4.4
2015-May-28 00:31N 43°59' W 005°15'6 5.5
2015-May-27 23:25N 43°55' W 005°22'6 5.8
2015-May-27 22:25N 43°50' W 005°27'10 5.1
2015-May-27 20:25N 43°40' W 005°26'2 2.3
2015-May-27 19:33N 43°39' W 005°24'5 4.9
2015-May-27 18:33N 43°41' W 005°30'5 4.5
2015-May-27 17:33N 43°38' W 005°25'4 4.2
2015-May-27 16:33N 43°40' W 005°21'6 6.2
2015-May-27 15:33N 43°39' W 005°12'7 6.6
2015-May-27 14:33N 43°38' W 005°03'6 5.9
2015-May-27 13:31N 43°36' W 004°56'4 3.3
2015-May-27 12:11N 43°40' W 004°55'3 5.6
2015-May-27 11:33N 43°43' W 004°56'22 5.4
2015-May-27 07:33N 43°47' W 005°25'6 6.0
2015-May-27 06:33N 43°44' W 005°32'5 5.4
2015-May-27 05:33N 43°45' W 005°25'0 0.3
2015-May-27 04:33N 43°45' W 005°25'6 5.9
2015-May-27 03:31N 43°43' W 005°17'3 1.5
2015-May-27 01:30N 43°44' W 005°21'5 5.5
2015-May-27 00:32N 43°45' W 005°28'6 5.5
2015-May-26 23:33N 43°48' W 005°34'2 2.4
2015-May-26 22:33N 43°50' W 005°37'4 3.8
2015-May-26 21:31N 43°53' W 005°34'13 3.2
2015-May-26 17:33N 43°45' W 005°20'5 5.1
2015-May-26 16:33N 43°49' W 005°25'1 1.1
2015-May-26 15:26N 43°49' W 005°26'5 5.8
2015-May-26 14:33N 43°45' W 005°21'3 3.4
2015-May-26 13:33N 43°43' W 005°25'6 5.6
2015-May-26 12:33N 43°39' W 005°29'4 3.5
2015-May-26 11:33N 43°36' W 005°26'1 0.7
2015-May-26 10:32N 43°37' W 005°26'2 2.0
2015-May-26 09:33N 43°38' W 005°28'2 1.5
2015-May-26 08:15N 43°37' W 005°26'4 5.9
2015-May-26 07:33N 43°38' W 005°31'5 5.0
2015-May-26 06:33N 43°42' W 005°34'3 3.2
2015-May-26 05:33N 43°44' W 005°30'5 4.7
2015-May-26 04:33N 43°42' W 005°24'6 5.5
2015-May-26 03:32N 43°42' W 005°17'6 5.6
2015-May-26 02:33N 43°42' W 005°09'6 6.0
2015-May-26 01:33N 43°40' W 005°01'8 6.5
2015-May-26 00:21N 43°39' W 004°50'6 7.0
2015-May-25 23:28N 43°37' W 004°42'7 0.3
2015-May-25 02:23N 43°42' W 004°50'5 5.9
2015-May-25 01:30N 43°42' W 004°57'  
2015-May-22 06:24N 43°49' W 004°44'6 5.9
2015-May-22 05:23N 43°48' W 004°36'3 1.9
2015-May-22 03:32N 43°45' W 004°39'8 1.6
2015-May-21 22:28N 43°37' W 004°42'12 1.5
2015-May-21 14:33N 43°44' W 004°55'13 4.1
2015-May-21 11:26N 43°52' W 005°09'3 3.1
2015-May-21 10:33N 43°53' W 005°12'8 7.7
2015-May-21 09:28N 43°50' W 005°02'6 6.4
2015-May-21 08:33N 43°48' W 004°54'16 5.1
2015-May-21 05:24N 43°49' W 005°17'6 6.6
2015-May-21 04:33N 43°49' W 005°09'8 7.8
2015-May-21 03:31N 43°49' W 004°58'8 7.9
2015-May-21 02:33N 43°49' W 004°47'9 7.8
2015-May-21 01:28N 43°48' W 004°36'  

Dump ship's entire track history